Terminal Aerodrome Forecast
Issued by NWS Charleston, WV

Current Version | Previous Version | Graphics & Text | Print | Product List | Glossary On
Versions: 1 2 3 4 5 6 7 8 9 10 11 12 13 14 15 16 17 18 19 20 21 22 23 24
628
FTUS41 KRLX 090557
TAFEKN
TAF
KEKN 090557Z 0906/1006 25005KT 1 1/2SM -SHSN OVC015
      TEMPO 0906/0909 3SM -SHSN OVC008
     FM090900 VRB03KT 3/4SM -SHSN SCT001 OVC008
     FM091100 VRB03KT 1/2SM SN FZFG SCT001 OVC005
     FM091300 25007KT 1/2SM SN FZFG SCT001 OVC005
     FM091500 27011G18KT 3/4SM -SHSN SCT001 OVC012
     FM092300 27012G21KT 1/2SM SHSN FZFG SCT001 OVC005
     FM100100 27009KT 3/4SM -SHSN SCT001 OVC008
     FM100500 27010G15KT 3SM -SHSN OVC015=

USA.gov is the U.S. government's official web portal to all federal, state and local government web resources and services.